createdAt,value
2019-03-27T00:01:00.123Z,10.20
2019-03-27T00:03:27.851Z,10.20
2019-03-27T00:05:55.376Z,10.20
2019-03-27T00:08:23.321Z,10.10
2019-03-27T00:10:51.131Z,10.20
2019-03-27T00:13:18.773Z,10.20
2019-03-27T00:15:47.432Z,10.10
2019-03-27T00:18:15.604Z,10.10
2019-03-27T00:20:43.039Z,10.10
2019-03-27T00:23:11.189Z,10.00
2019-03-27T00:25:39.535Z,10.00
2019-03-27T00:28:07.099Z,10.00
2019-03-27T00:30:34.979Z,10.00
2019-03-27T00:33:02.620Z,10.00
2019-03-27T00:35:30.138Z,10.00
2019-03-27T00:37:58.116Z,10.00
2019-03-27T00:40:25.655Z,10.00
2019-03-27T00:42:53.296Z,10.00
2019-03-27T00:45:26.692Z,9.90
2019-03-27T00:47:50.404Z,9.80
2019-03-27T00:50:18.228Z,9.80
2019-03-27T00:52:45.972Z,9.80
2019-03-27T00:55:13.908Z,9.70
2019-03-27T00:57:41.668Z,9.70
2019-03-27T01:00:16.856Z,9.70
2019-03-27T01:02:44.403Z,9.60
2019-03-27T01:05:12.284Z,9.60
2019-03-27T01:07:40.207Z,9.60
2019-03-27T01:10:07.995Z,9.50
2019-03-27T01:12:37.739Z,9.60
2019-03-27T01:15:06.803Z,9.70
2019-03-27T01:17:34.372Z,9.70
2019-03-27T01:20:02.041Z,9.60
2019-03-27T01:22:29.671Z,9.50
2019-03-27T01:24:57.290Z,9.60
2019-03-27T01:27:25.287Z,9.60
2019-03-27T01:29:53.075Z,9.60
2019-03-27T01:32:21.288Z,9.50
2019-03-27T01:34:49.932Z,9.40
2019-03-27T01:37:17.856Z,9.40
2019-03-27T01:39:45.404Z,9.50
2019-03-27T01:42:13.840Z,9.40
2019-03-27T01:44:41.509Z,9.40
2019-03-27T01:47:10.036Z,9.30
2019-03-27T01:49:38.394Z,9.30
2019-03-27T01:52:08.043Z,9.30
2019-03-27T01:54:37.198Z,9.20
2019-03-27T01:57:05.528Z,9.20
2019-03-27T01:59:33.052Z,9.10
2019-03-27T02:02:02.299Z,9.10
2019-03-27T02:04:29.924Z,9.10
2019-03-27T02:06:58.491Z,9.00
2019-03-27T02:09:26.202Z,8.90
2019-03-27T02:11:53.983Z,8.90
2019-03-27T02:14:22.580Z,9.00
2019-03-27T02:16:50.965Z,9.10
2019-03-27T02:19:18.580Z,8.90
2019-03-27T02:21:47.061Z,8.90
2019-03-27T02:24:14.588Z,8.90
2019-03-27T02:26:42.208Z,9.00
2019-03-27T02:29:11.334Z,9.00
2019-03-27T02:31:39.891Z,8.90
2019-03-27T02:34:08.637Z,8.90
2019-03-27T02:36:37.076Z,8.90
2019-03-27T02:39:05.488Z,8.80
2019-03-27T02:41:33.313Z,8.80
2019-03-27T02:44:01.078Z,8.80
2019-03-27T02:46:29.233Z,8.80
2019-03-27T02:48:57.968Z,8.70
2019-03-27T02:51:25.623Z,8.70
2019-03-27T02:53:53.319Z,8.70
2019-03-27T02:56:21.360Z,8.70
2019-03-27T02:58:49.158Z,8.60
2019-03-27T03:01:16.677Z,8.60
2019-03-27T03:03:44.625Z,8.70
2019-03-27T03:06:13.298Z,8.70
2019-03-27T03:08:41.044Z,8.70
2019-03-27T03:11:09.452Z,8.70
2019-03-27T03:13:36.912Z,8.80
2019-03-27T03:16:06.246Z,8.70
2019-03-27T03:18:33.898Z,8.70
2019-03-27T03:21:02.322Z,8.70
2019-03-27T03:23:30.983Z,8.60
2019-03-27T03:25:59.058Z,8.60
2019-03-27T03:28:27.510Z,8.60
2019-03-27T03:30:54.985Z,8.50
2019-03-27T03:33:23.180Z,8.50
2019-03-27T03:35:50.959Z,8.50
2019-03-27T03:38:18.835Z,8.60
2019-03-27T03:40:47.215Z,8.40
2019-03-27T03:43:14.739Z,8.50
2019-03-27T03:45:43.700Z,8.30
2019-03-27T03:48:11.367Z,8.40
2019-03-27T03:50:40.796Z,8.40
2019-03-27T03:53:10.520Z,8.50
2019-03-27T03:55:39.391Z,8.50
2019-03-27T03:58:08.860Z,8.50
2019-03-27T04:00:36.767Z,8.40
2019-03-27T04:03:04.656Z,8.40
2019-03-27T04:05:32.412Z,8.50
2019-03-27T04:08:00.047Z,8.40
2019-03-27T04:10:27.984Z,8.30
2019-03-27T04:12:55.679Z,8.30
2019-03-27T04:15:24.243Z,8.30
2019-03-27T04:17:53.465Z,8.40
2019-03-27T04:20:20.872Z,8.30
2019-03-27T04:22:48.539Z,8.20
2019-03-27T04:25:19.483Z,8.30
2019-03-27T04:27:48.004Z,8.30
2019-03-27T04:30:16.153Z,8.20
2019-03-27T04:32:44.384Z,8.10
2019-03-27T04:35:12.306Z,8.10
2019-03-27T04:37:39.868Z,8.10
2019-03-27T04:40:08.032Z,8.10
2019-03-27T04:42:36.197Z,8.30
2019-03-27T04:45:04.650Z,8.40
2019-03-27T04:47:32.800Z,8.20
2019-03-27T04:50:01.486Z,8.40
2019-03-27T04:52:29.136Z,8.30
2019-03-27T04:54:57.772Z,8.30
2019-03-27T04:57:26.440Z,8.30
2019-03-27T04:59:54.596Z,8.10
2019-03-27T05:02:22.732Z,8.20
2019-03-27T05:04:50.132Z,8.40
2019-03-27T05:07:19.720Z,8.20
2019-03-27T05:09:48.572Z,8.20
2019-03-27T05:12:16.963Z,8.10
2019-03-27T05:14:44.767Z,8.00
2019-03-27T05:17:12.500Z,8.10
2019-03-27T05:19:40.975Z,8.10
2019-03-27T05:22:09.240Z,8.00
2019-03-27T05:24:37.532Z,8.20
2019-03-27T05:27:05.395Z,8.30
2019-03-27T05:29:33.098Z,8.40
2019-03-27T05:32:00.720Z,8.30
2019-03-27T05:34:28.413Z,8.40
2019-03-27T05:36:56.059Z,8.40
2019-03-27T05:39:24.463Z,8.40
2019-03-27T05:41:52.028Z,8.40
2019-03-27T05:44:19.475Z,8.40
2019-03-27T05:46:47.414Z,8.40
2019-03-27T05:49:15.084Z,8.30
2019-03-27T05:51:43.307Z,8.20
2019-03-27T05:54:11.739Z,8.10
2019-03-27T05:56:41.315Z,8.00
2019-03-27T05:59:09.725Z,8.10
2019-03-27T06:01:37.840Z,8.20
2019-03-27T06:04:07.417Z,8.30
2019-03-27T06:06:36.495Z,8.30
2019-03-27T06:09:05.485Z,8.30
2019-03-27T06:11:32.984Z,8.30
2019-03-27T06:14:00.888Z,8.40
2019-03-27T06:16:29.329Z,8.40
2019-03-27T06:18:56.883Z,8.50
2019-03-27T06:21:24.491Z,8.50
2019-03-27T06:23:52.618Z,8.60
2019-03-27T06:26:20.317Z,8.60
2019-03-27T06:28:48.177Z,8.60
2019-03-27T06:31:16.498Z,8.60
2019-03-27T06:33:44.327Z,8.50
2019-03-27T06:36:13.142Z,8.60
2019-03-27T06:38:41.445Z,8.60
2019-03-27T06:41:09.539Z,8.70
2019-03-27T06:43:37.782Z,8.80
2019-03-27T06:46:05.884Z,8.80
2019-03-27T06:48:33.435Z,8.90
2019-03-27T06:51:01.239Z,8.90
2019-03-27T06:53:30.658Z,8.90
2019-03-27T06:55:58.724Z,9.00
2019-03-27T06:58:27.046Z,9.00
2019-03-27T07:00:54.492Z,9.10
2019-03-27T07:03:22.627Z,9.10
2019-03-27T07:05:50.289Z,9.10
2019-03-27T07:08:18.939Z,9.20
2019-03-27T07:10:46.685Z,9.30
2019-03-27T07:13:14.727Z,9.30
2019-03-27T07:15:43.419Z,9.40
2019-03-27T07:18:11.700Z,9.50
2019-03-27T07:20:41.048Z,9.50
2019-03-27T07:23:09.532Z,9.60
2019-03-27T07:25:37.100Z,9.70
2019-03-27T07:28:05.339Z,9.70
2019-03-27T07:30:32.916Z,9.70
2019-03-27T07:33:00.752Z,9.80
2019-03-27T07:35:30.339Z,9.90
2019-03-27T07:37:57.859Z,9.90
2019-03-27T07:40:25.484Z,9.90
2019-03-27T07:42:53.095Z,10.00
2019-03-27T07:45:20.648Z,10.00
2019-03-27T07:47:48.495Z,10.00
2019-03-27T07:50:18.132Z,10.10
2019-03-27T07:52:45.818Z,10.20
2019-03-27T07:55:19.193Z,10.30
2019-03-27T07:57:43.742Z,10.30
2019-03-27T08:00:13.805Z,10.50
2019-03-27T08:02:41.520Z,10.60
2019-03-27T08:05:09.347Z,10.60
2019-03-27T08:07:38.495Z,10.70
2019-03-27T08:10:07.055Z,10.80
2019-03-27T08:12:34.900Z,10.80
2019-03-27T08:15:05.098Z,10.90
2019-03-27T08:17:33.779Z,11.00
2019-03-27T08:20:01.484Z,11.00
2019-03-27T08:22:31.026Z,11.00
2019-03-27T08:24:58.971Z,11.10
2019-03-27T08:27:26.453Z,11.20
2019-03-27T08:29:56.022Z,11.20
2019-03-27T08:32:23.688Z,11.10
2019-03-27T08:34:52.484Z,11.10
2019-03-27T08:37:22.131Z,11.10
2019-03-27T08:39:50.795Z,11.00
2019-03-27T08:42:18.473Z,10.90
2019-03-27T08:44:48.023Z,10.90
2019-03-27T08:47:16.024Z,11.00
2019-03-27T08:49:44.695Z,11.10
2019-03-27T08:52:12.263Z,11.00
2019-03-27T08:54:40.307Z,10.90
2019-03-27T08:57:07.856Z,10.90
2019-03-27T08:59:35.377Z,10.80
2019-03-27T09:02:03.078Z,10.70
2019-03-27T09:04:30.623Z,10.80
2019-03-27T09:06:58.567Z,10.80
2019-03-27T09:09:25.967Z,10.80
2019-03-27T09:11:55.164Z,10.80
2019-03-27T09:14:24.139Z,10.80
2019-03-27T09:16:51.555Z,10.90
2019-03-27T09:19:19.524Z,11.00
2019-03-27T09:21:47.779Z,11.00
2019-03-27T09:24:15.289Z,10.90
2019-03-27T09:26:44.587Z,10.90
2019-03-27T09:29:12.859Z,11.00
2019-03-27T09:31:44.995Z,11.00
2019-03-27T09:34:10.102Z,10.90
2019-03-27T09:36:38.636Z,10.90
2019-03-27T09:39:09.099Z,10.90
2019-03-27T09:41:36.787Z,10.80
2019-03-27T09:44:04.439Z,10.80
2019-03-27T09:46:32.484Z,10.90
2019-03-27T09:49:01.596Z,10.90
2019-03-27T09:51:29.736Z,10.80
2019-03-27T09:53:57.402Z,10.80
2019-03-27T09:56:25.723Z,10.80
2019-03-27T09:58:53.348Z,10.80
2019-03-27T10:01:20.975Z,10.80
2019-03-27T10:03:48.736Z,10.80
2019-03-27T10:06:17.825Z,10.80
2019-03-27T10:08:45.415Z,10.80
2019-03-27T10:11:13.933Z,10.80
2019-03-27T10:13:41.600Z,10.80
2019-03-27T10:16:09.576Z,10.80
2019-03-27T10:18:37.603Z,10.80
2019-03-27T10:21:05.251Z,10.90
2019-03-27T10:23:33.604Z,11.10
2019-03-27T10:26:01.241Z,11.20
2019-03-27T10:28:29.411Z,11.20
2019-03-27T10:30:59.242Z,11.20
2019-03-27T10:33:27.901Z,11.20
2019-03-27T10:35:56.199Z,11.20
2019-03-27T10:38:25.379Z,11.10
2019-03-27T10:40:53.742Z,11.10
2019-03-27T10:43:21.364Z,11.10
2019-03-27T10:45:49.320Z,11.10
2019-03-27T10:48:16.911Z,11.00
2019-03-27T10:50:44.616Z,11.00
2019-03-27T10:53:14.156Z,11.00
2019-03-27T10:55:43.156Z,11.00
2019-03-27T10:58:11.415Z,11.00
2019-03-27T11:00:41.080Z,11.10
2019-03-27T11:03:08.799Z,11.10
2019-03-27T11:05:36.855Z,11.10
2019-03-27T11:08:04.520Z,11.10
2019-03-27T11:10:33.304Z,11.20
2019-03-27T11:13:00.823Z,11.40
2019-03-27T11:15:30.192Z,11.50
2019-03-27T11:17:57.858Z,11.50
2019-03-27T11:20:31.273Z,11.50
2019-03-27T11:22:57.188Z,11.50
2019-03-27T11:25:24.579Z,11.50
2019-03-27T11:27:53.336Z,11.50
2019-03-27T11:30:34.419Z,11.60
2019-03-27T11:33:02.315Z,11.60
2019-03-27T11:35:31.855Z,11.60
2019-03-27T11:37:59.853Z,11.70
2019-03-27T11:40:28.712Z,11.70
2019-03-27T11:42:56.351Z,11.70
2019-03-27T11:45:24.216Z,11.80
2019-03-27T11:47:52.272Z,11.80
2019-03-27T11:50:20.772Z,11.80
2019-03-27T11:52:48.724Z,11.90
2019-03-27T11:55:16.544Z,11.90
2019-03-27T11:57:45.031Z,11.90
2019-03-27T12:00:13.521Z,11.90
2019-03-27T12:02:43.020Z,12.00
2019-03-27T12:05:11.641Z,12.00
2019-03-27T12:07:39.285Z,12.00
2019-03-27T12:10:09.297Z,12.00
2019-03-27T12:12:36.960Z,12.00
2019-03-27T12:15:06.075Z,12.00
2019-03-27T12:17:34.786Z,12.00
2019-03-27T12:20:03.195Z,12.00
2019-03-27T12:22:32.164Z,11.90
2019-03-27T12:25:00.357Z,11.90
2019-03-27T12:27:28.860Z,11.80
2019-03-27T12:29:56.829Z,11.80
2019-03-27T12:32:25.158Z,11.80
2019-03-27T12:34:52.872Z,11.80
2019-03-27T12:37:21.994Z,11.80
2019-03-27T12:39:49.991Z,11.80
2019-03-27T12:42:17.743Z,11.80
2019-03-27T12:44:45.307Z,11.70
2019-03-27T12:47:14.104Z,11.70
2019-03-27T12:49:41.661Z,11.70
2019-03-27T12:52:10.036Z,11.70
2019-03-27T12:54:37.548Z,11.70
2019-03-27T12:57:05.651Z,11.70
2019-03-27T12:59:33.304Z,11.70
2019-03-27T13:02:00.917Z,11.70
2019-03-27T13:04:30.146Z,11.70
2019-03-27T13:06:57.828Z,11.70
2019-03-27T13:09:25.532Z,11.70
2019-03-27T13:11:53.701Z,11.80
2019-03-27T13:14:21.393Z,11.80
2019-03-27T13:16:52.353Z,11.90
2019-03-27T13:19:20.543Z,11.90
2019-03-27T13:21:48.456Z,11.90
2019-03-27T13:24:16.116Z,11.90
2019-03-27T13:26:45.379Z,11.90
2019-03-27T13:29:14.111Z,11.90
2019-03-27T13:31:42.396Z,12.00
2019-03-27T13:34:10.311Z,12.00
2019-03-27T13:36:44.847Z,12.00
2019-03-27T13:39:12.632Z,12.00
2019-03-27T13:41:40.503Z,12.00
2019-03-27T13:44:08.819Z,12.00
2019-03-27T13:46:37.284Z,12.00
2019-03-27T13:49:06.215Z,12.00
2019-03-27T13:51:40.494Z,12.10
2019-03-27T13:54:06.048Z,12.00
2019-03-27T13:56:34.744Z,12.00
2019-03-27T13:59:02.805Z,12.00
2019-03-27T14:01:31.867Z,12.00
2019-03-27T14:04:01.607Z,12.10
2019-03-27T14:06:29.536Z,12.10
2019-03-27T14:08:57.492Z,12.10
2019-03-27T14:11:26.068Z,12.10
2019-03-27T14:13:53.639Z,12.10
2019-03-27T14:16:22.268Z,12.20
2019-03-27T14:18:49.815Z,12.20
2019-03-27T14:21:17.462Z,12.20
2019-03-27T14:23:46.003Z,12.10
2019-03-27T14:26:13.891Z,12.10
2019-03-27T14:28:41.336Z,12.10
2019-03-27T14:31:10.763Z,12.10
2019-03-27T14:33:38.470Z,12.10
2019-03-27T14:36:08.187Z,12.10
2019-03-27T14:38:36.652Z,12.10
2019-03-27T14:41:04.277Z,12.10
2019-03-27T14:43:32.353Z,12.10
2019-03-27T14:45:59.959Z,12.10
2019-03-27T14:48:28.019Z,12.10
2019-03-27T14:50:55.543Z,12.10
2019-03-27T14:53:24.108Z,12.10
2019-03-27T14:55:53.592Z,12.10
2019-03-27T14:58:22.239Z,12.10
2019-03-27T15:00:51.363Z,12.10
2019-03-27T15:03:19.707Z,12.10
2019-03-27T15:05:48.272Z,12.00
2019-03-27T15:08:15.904Z,12.10
2019-03-27T15:10:43.620Z,12.00
2019-03-27T15:13:15.276Z,12.10
2019-03-27T15:15:42.986Z,12.10
2019-03-27T15:18:10.768Z,12.10
2019-03-27T15:20:38.588Z,12.20
2019-03-27T15:23:06.713Z,12.20
2019-03-27T15:25:36.139Z,12.20
2019-03-27T15:28:05.431Z,12.20
2019-03-27T15:30:33.696Z,12.20
2019-03-27T15:33:02.073Z,12.20
2019-03-27T15:35:29.721Z,12.10
2019-03-27T15:37:57.276Z,12.20
2019-03-27T15:40:38.511Z,12.10
2019-03-27T15:43:07.303Z,12.10
2019-03-27T15:45:35.362Z,12.10
2019-03-27T15:48:03.166Z,12.10
2019-03-27T15:50:30.850Z,12.20
2019-03-27T15:52:58.807Z,12.20
2019-03-27T15:55:26.567Z,12.10
2019-03-27T15:57:54.361Z,12.10
2019-03-27T16:00:23.632Z,12.10
2019-03-27T16:02:52.591Z,12.10
2019-03-27T16:05:20.600Z,12.10
2019-03-27T16:07:49.771Z,12.10
2019-03-27T16:10:18.493Z,12.10
2019-03-27T16:12:47.677Z,12.20
2019-03-27T16:15:15.601Z,12.20
2019-03-27T16:17:43.644Z,12.20
2019-03-27T16:20:12.404Z,12.20
2019-03-27T16:22:49.792Z,12.20
2019-03-27T16:25:10.055Z,12.20
2019-03-27T16:27:39.251Z,12.20
2019-03-27T16:30:07.714Z,12.10
2019-03-27T16:32:35.697Z,12.10
2019-03-27T16:35:04.096Z,12.10
2019-03-27T16:37:32.093Z,12.10
2019-03-27T16:39:59.955Z,12.00
2019-03-27T16:42:28.112Z,12.00
2019-03-27T16:44:56.441Z,12.00
2019-03-27T16:47:24.621Z,12.00
2019-03-27T16:49:52.787Z,12.00
2019-03-27T16:52:20.959Z,12.00
2019-03-27T16:54:50.375Z,11.90
2019-03-27T16:57:18.671Z,11.90
2019-03-27T16:59:46.359Z,11.90
2019-03-27T17:02:14.539Z,11.90
2019-03-27T17:04:43.903Z,12.00
2019-03-27T17:07:11.455Z,11.90
2019-03-27T17:09:39.512Z,11.90
2019-03-27T17:12:09.075Z,11.80
2019-03-27T17:14:37.743Z,11.80
2019-03-27T17:17:05.595Z,11.80
2019-03-27T17:19:35.184Z,11.80
2019-03-27T17:22:03.487Z,11.80
2019-03-27T17:24:32.035Z,11.70
2019-03-27T17:26:59.719Z,11.70
2019-03-27T17:29:27.243Z,11.70
2019-03-27T17:31:56.063Z,11.70
2019-03-27T17:34:24.516Z,11.60
2019-03-27T17:36:52.964Z,11.60
2019-03-27T17:39:21.415Z,11.50
2019-03-27T17:41:50.271Z,11.40
2019-03-27T17:44:18.584Z,11.40
2019-03-27T17:46:50.057Z,11.40
2019-03-27T17:49:16.420Z,11.30
2019-03-27T17:51:44.667Z,11.30
2019-03-27T17:54:20.495Z,11.30
2019-03-27T17:56:41.884Z,11.30
2019-03-27T17:59:09.569Z,11.20
2019-03-27T18:01:37.579Z,11.20
2019-03-27T18:04:05.639Z,11.20
2019-03-27T18:06:33.212Z,11.20
2019-03-27T18:09:01.404Z,11.10
2019-03-27T18:11:30.684Z,11.20
2019-03-27T18:13:59.475Z,11.10
2019-03-27T18:16:27.802Z,11.00
2019-03-27T18:18:55.329Z,11.00
2019-03-27T18:21:23.716Z,11.00
2019-03-27T18:23:51.244Z,11.00
2019-03-27T18:26:20.404Z,10.90
2019-03-27T18:28:49.568Z,10.90
2019-03-27T18:31:17.167Z,10.80
2019-03-27T18:33:45.468Z,10.80
2019-03-27T18:36:13.014Z,10.80
2019-03-27T18:38:41.288Z,10.80
2019-03-27T18:41:08.824Z,10.70
2019-03-27T18:43:36.943Z,10.70
2019-03-27T18:46:04.971Z,10.70
2019-03-27T18:48:33.928Z,10.60
2019-03-27T18:51:01.799Z,10.60
2019-03-27T18:53:29.511Z,10.60
2019-03-27T18:55:58.279Z,10.60
2019-03-27T18:58:25.844Z,10.50
2019-03-27T19:00:53.703Z,10.50
2019-03-27T19:03:21.390Z,10.50
2019-03-27T19:05:49.379Z,10.50
2019-03-27T19:08:17.640Z,10.40
2019-03-27T19:10:46.106Z,10.30
2019-03-27T19:13:14.223Z,10.30
2019-03-27T19:15:41.759Z,10.30
2019-03-27T19:18:11.246Z,10.30
2019-03-27T19:20:39.218Z,10.20
2019-03-27T19:23:07.049Z,10.20
2019-03-27T19:25:36.307Z,10.20
2019-03-27T19:28:04.163Z,10.20
2019-03-27T19:30:31.794Z,10.10
2019-03-27T19:33:01.269Z,10.10
2019-03-27T19:35:30.819Z,10.10
2019-03-27T19:37:58.643Z,10.10
2019-03-27T19:40:26.496Z,10.10
2019-03-27T19:42:54.743Z,10.10
2019-03-27T19:45:22.633Z,10.00
2019-03-27T19:47:51.408Z,10.00
2019-03-27T19:50:19.291Z,9.90
2019-03-27T19:52:47.115Z,9.80
2019-03-27T19:55:15.145Z,9.90
2019-03-27T19:57:42.811Z,9.90
2019-03-27T20:00:11.436Z,9.90
2019-03-27T20:02:41.091Z,9.90
2019-03-27T20:05:10.141Z,9.90
2019-03-27T20:07:38.427Z,9.90
2019-03-27T20:10:08.424Z,10.00
2019-03-27T20:12:36.319Z,10.00
2019-03-27T20:15:11.689Z,9.90
2019-03-27T20:17:34.888Z,10.00
2019-03-27T20:20:07.310Z,10.00
2019-03-27T20:22:35.449Z,9.90
2019-03-27T20:25:05.352Z,9.90
2019-03-27T20:27:32.965Z,9.90
2019-03-27T20:30:01.020Z,9.80
2019-03-27T20:32:28.583Z,9.80
2019-03-27T20:34:56.406Z,9.80
2019-03-27T20:37:27.092Z,10.10
2019-03-27T20:39:54.664Z,9.90
2019-03-27T20:42:22.181Z,9.80
2019-03-27T20:44:50.535Z,9.90
2019-03-27T20:47:18.503Z,9.90
2019-03-27T20:49:46.356Z,9.80
2019-03-27T20:52:14.243Z,9.80
2019-03-27T20:54:54.450Z,9.80
2019-03-27T20:57:14.330Z,9.90
2019-03-27T20:59:42.572Z,9.90
2019-03-27T21:02:10.511Z,10.00
2019-03-27T21:04:38.007Z,10.00
2019-03-27T21:07:06.180Z,10.00
2019-03-27T21:09:34.819Z,10.00
2019-03-27T21:12:03.095Z,10.00
2019-03-27T21:14:32.067Z,9.90
2019-03-27T21:16:59.949Z,9.90
2019-03-27T21:19:27.708Z,9.90
2019-03-27T21:21:56.713Z,9.90
2019-03-27T21:24:25.119Z,9.90
2019-03-27T21:26:53.807Z,9.90
2019-03-27T21:29:22.276Z,9.90
2019-03-27T21:31:50.151Z,9.90
2019-03-27T21:34:17.860Z,10.00
2019-03-27T21:36:45.956Z,10.00
2019-03-27T21:39:13.583Z,10.00
2019-03-27T21:41:42.435Z,9.90
2019-03-27T21:44:10.063Z,9.90
2019-03-27T21:46:38.164Z,9.90
2019-03-27T21:49:07.756Z,9.80
2019-03-27T21:51:35.995Z,9.70
2019-03-27T21:54:04.656Z,9.70
2019-03-27T21:56:32.591Z,9.70
2019-03-27T21:59:02.591Z,9.60
2019-03-27T22:01:31.095Z,9.60
2019-03-27T22:03:58.619Z,9.60
2019-03-27T22:06:26.903Z,9.70
2019-03-27T22:08:55.772Z,9.60
2019-03-27T22:11:23.301Z,9.50
2019-03-27T22:13:52.007Z,9.60
2019-03-27T22:16:19.531Z,9.50
2019-03-27T22:18:48.139Z,9.60
2019-03-27T22:21:16.629Z,9.50
2019-03-27T22:23:45.827Z,9.50
2019-03-27T22:26:13.388Z,9.60
2019-03-27T22:28:42.580Z,9.40
2019-03-27T22:31:10.231Z,9.50
2019-03-27T22:33:38.603Z,9.60
2019-03-27T22:36:06.449Z,9.60
2019-03-27T22:38:35.055Z,9.60
2019-03-27T22:41:03.819Z,9.70
2019-03-27T22:43:32.301Z,9.70
2019-03-27T22:46:02.121Z,9.70
2019-03-27T22:48:30.063Z,9.70
2019-03-27T22:50:58.334Z,9.70
2019-03-27T22:53:27.432Z,9.70
2019-03-27T22:55:56.043Z,9.60
2019-03-27T22:58:25.063Z,9.60
2019-03-27T23:00:54.042Z,9.70
2019-03-27T23:03:22.043Z,9.60
2019-03-27T23:05:51.918Z,9.60
2019-03-27T23:08:21.011Z,9.60
2019-03-27T23:10:50.924Z,9.50
2019-03-27T23:13:19.303Z,9.50
2019-03-27T23:15:46.992Z,9.40
2019-03-27T23:18:16.475Z,9.40
2019-03-27T23:20:44.535Z,9.50
2019-03-27T23:23:12.444Z,9.50
2019-03-27T23:25:40.879Z,9.40
2019-03-27T23:28:08.936Z,9.40
2019-03-27T23:30:36.699Z,9.40
2019-03-27T23:33:05.011Z,9.40
2019-03-27T23:35:33.359Z,9.40
2019-03-27T23:38:01.280Z,9.40
2019-03-27T23:40:29.535Z,9.40
2019-03-27T23:42:57.501Z,9.40
2019-03-27T23:45:25.245Z,9.40
2019-03-27T23:47:53.806Z,9.30
2019-03-27T23:50:21.986Z,9.40
2019-03-27T23:52:51.524Z,9.30
2019-03-27T23:55:19.474Z,9.40
2019-03-27T23:57:47.592Z,9.40
